Time;durP1;ratioP1;P1;durP2;ratioP2;P2;SDS_P1;SDS_P2;PMS_P1;PMS_P2;Temp;Humidity;BMP_temperature;BMP_pressure;BME280_temperature;BME280_humidity;BME280_pressure;Samples;Min_cycle;Max_cycle;Signal;HPM_P1;HPM_P2
2023/05/11 02:43:57;;;;;;;5.60;3.30;;;;;;;10.04;43.45;99429.02;106954;1305;558189;-47
2023/05/11 02:46:32;;;;;;;9.40;3.10;;;;;;;10.02;43.43;99429.32;107269;1314;22502;-48
2023/05/11 02:49:00;;;;;;;4.80;3.00;;;;;;;10.01;43.40;99431.81;107455;1310;22288;-45
2023/05/11 02:51:34;;;;;;;5.30;2.60;;;;;;;10.02;43.23;99434.36;107430;1311;22731;-44
2023/05/11 02:54:01;;;;;;;12.50;3.40;;;;;;;10.00;43.58;99430.80;107437;1311;22407;-44
2023/05/11 02:56:26;;;;;;;13.20;4.00;;;;;;;9.98;43.58;99431.92;107381;1309;148170;-50
2023/05/11 02:58:52;;;;;;;13.20;4.20;;;;;;;9.98;43.24;99431.06;107726;1309;23180;-47
2023/05/11 03:01:18;;;;;;;10.50;3.70;;;;;;;9.97;43.45;99432.33;107730;1309;22453;-45
2023/05/11 03:03:43;;;;;;;6.30;3.90;;;;;;;9.96;43.56;99435.19;107707;1302;22442;-43
2023/05/11 03:06:08;;;;;;;8.60;3.50;;;;;;;9.98;43.25;99435.62;107734;1309;22274;-46
2023/05/11 03:08:34;;;;;;;8.30;3.30;;;;;;;9.97;43.28;99437.41;107709;1309;22286;-46
2023/05/11 03:11:01;;;;;;;7.60;3.20;;;;;;;9.94;43.74;99434.05;107711;1309;22286;-46
2023/05/11 03:13:27;;;;;;;5.70;2.90;;;;;;;9.93;43.48;99433.05;107717;1309;23124;-49
2023/05/11 03:15:53;;;;;;;8.80;2.90;;;;;;;9.91;43.58;99438.25;107744;1309;22264;-46
2023/05/11 03:18:20;;;;;;;7.40;2.70;;;;;;;9.89;43.34;99434.66;107738;1309;22243;-45
2023/05/11 03:20:46;;;;;;;6.50;3.00;;;;;;;9.88;43.75;99432.45;107734;1309;22264;-46
2023/05/11 03:23:13;;;;;;;6.80;3.00;;;;;;;9.91;43.59;99434.08;107738;1309;22319;-48
2023/05/11 03:25:40;;;;;;;;;;;;;;;9.89;43.77;99433.61;107748;1309;22475;-47
2023/05/11 03:28:07;;;;;;;9.80;2.70;;;;;;;9.86;43.43;99436.20;107707;1309;22486;-48
2023/05/11 03:30:33;;;;;;;10.20;2.90;;;;;;;9.84;43.51;99440.16;107723;1309;22289;-52
2023/05/11 03:32:59;;;;;;;8.50;3.30;;;;;;;9.86;43.68;99439.36;107725;1309;22728;-44
2023/05/11 03:35:26;;;;;;;9.90;2.90;;;;;;;9.87;43.38;99440.71;107728;1309;22522;-47
2023/05/11 03:37:55;;;;;;;11.70;2.80;;;;;;;9.86;43.57;99443.25;107731;1309;23124;-46
2023/05/11 03:40:23;;;;;;;6.20;2.70;;;;;;;9.87;43.69;99446.14;107715;1309;23529;-45
2023/05/11 03:42:53;;;;;;;10.60;3.40;;;;;;;9.91;43.44;99449.63;107725;1309;22246;-49
2023/05/11 03:45:20;;;;;;;10.20;2.90;;;;;;;9.92;43.30;99453.29;107727;1309;22654;-46
2023/05/11 03:47:47;;;;;;;9.30;3.20;;;;;;;9.93;43.41;99450.73;107477;1309;22925;-44
2023/05/11 03:50:14;;;;;;;7.00;3.20;;;;;;;9.97;43.70;99449.83;107705;1309;22279;-47
2023/05/11 03:52:39;;;;;;;9.40;2.70;;;;;;;9.96;43.62;99453.75;107722;1309;22812;-47
2023/05/11 03:55:05;;;;;;;17.50;3.50;;;;;;;9.97;43.56;99454.20;107639;1309;22277;-47
2023/05/11 03:57:31;;;;;;;10.30;2.90;;;;;;;9.97;43.36;99455.11;107557;1310;22234;-47
2023/05/11 03:59:57;;;;;;;6.90;2.70;;;;;;;9.97;43.78;99457.75;107570;1310;22223;-43
2023/05/11 04:02:23;;;;;;;9.40;3.10;;;;;;;9.96;43.69;99462.33;107560;1310;22244;-45
2023/05/11 04:04:49;;;;;;;5.20;2.50;;;;;;;9.98;43.75;99459.26;107540;1310;23115;-46
2023/05/11 04:07:15;;;;;;;7.80;3.20;;;;;;;9.98;43.48;99462.05;107666;1308;22595;-48
2023/05/11 04:09:40;;;;;;;4.60;2.90;;;;;;;10.00;43.81;99461.82;107688;1309;22353;-48
2023/05/11 04:12:05;;;;;;;6.60;3.20;;;;;;;10.00;43.32;99460.22;107204;1308;22311;-51
2023/05/11 04:14:31;;;;;;;5.30;3.20;;;;;;;10.02;43.51;99465.38;107871;1308;22257;-48
2023/05/11 04:16:56;;;;;;;13.10;3.10;;;;;;;10.03;43.57;99466.38;107850;1308;22248;-44
2023/05/11 04:19:21;;;;;;;7.60;2.60;;;;;;;10.06;43.20;99465.73;107837;1308;25427;-46
2023/05/11 04:21:46;;;;;;;7.60;2.70;;;;;;;10.09;42.90;99464.36;107851;1308;23270;-44
2023/05/11 04:24:12;;;;;;;7.90;2.80;;;;;;;10.08;43.10;99466.48;107879;1308;23222;-45
2023/05/11 04:26:37;;;;;;;7.10;2.80;;;;;;;10.08;43.69;99465.95;107860;1308;22248;-45
2023/05/11 04:29:03;;;;;;;6.40;2.70;;;;;;;10.06;43.04;99460.10;107874;1308;23146;-43
2023/05/11 04:31:29;;;;;;;9.30;2.70;;;;;;;10.10;43.13;99459.38;107840;1308;22242;-48
2023/05/11 04:33:54;;;;;;;14.30;3.10;;;;;;;10.12;43.58;99462.06;107841;1308;22276;-43
2023/05/11 04:36:21;;;;;;;8.70;2.80;;;;;;;10.18;43.16;99464.23;107880;1308;22440;-50
2023/05/11 04:38:46;;;;;;;8.60;3.40;;;;;;;10.17;43.12;99461.28;107872;1308;22578;-50
2023/05/11 04:41:12;;;;;;;5.30;2.80;;;;;;;10.17;42.83;99464.08;107851;1308;22451;-42
2023/05/11 04:43:38;;;;;;;3.30;2.70;;;;;;;10.19;43.20;99468.38;107868;1308;22216;-45
2023/05/11 04:46:03;;;;;;;9.30;2.90;;;;;;;10.24;43.17;99470.20;107846;1308;22247;-51
2023/05/11 04:48:28;;;;;;;11.50;3.10;;;;;;;10.30;42.63;99472.54;107829;1308;22397;-46
2023/05/11 04:50:55;;;;;;;6.90;2.90;;;;;;;10.35;42.81;99469.69;107860;1308;22338;-46
2023/05/11 04:53:20;;;;;;;9.70;2.70;;;;;;;10.40;43.09;99472.44;107829;1308;22492;-49
2023/05/11 04:55:46;;;;;;;12.40;2.80;;;;;;;10.44;42.73;99471.19;107850;1308;22256;-45
2023/05/11 04:58:11;;;;;;;9.50;3.00;;;;;;;10.48;42.35;99473.41;107862;1308;22454;-48
2023/05/11 05:00:36;;;;;;;11.60;2.60;;;;;;;10.51;42.24;99470.62;107858;1308;22311;-50
2023/05/11 05:03:02;;;;;;;8.00;2.70;;;;;;;10.55;42.13;99475.68;107869;1308;22253;-51
2023/05/11 05:05:28;;;;;;;8.40;2.80;;;;;;;10.58;42.36;99474.85;107836;1308;22444;-45
2023/05/11 05:07:53;;;;;;;7.40;2.60;;;;;;;10.64;42.33;99475.05;107837;1308;23290;-44
2023/05/11 05:10:18;;;;;;;6.50;2.70;;;;;;;10.67;41.82;99473.32;107838;1308;23310;-44
2023/05/11 05:12:44;;;;;;;4.90;2.80;;;;;;;10.71;41.67;99476.73;107855;1308;22261;-47
2023/05/11 05:15:10;;;;;;;8.60;2.80;;;;;;;10.78;41.50;99476.93;107830;1308;22541;-44
2023/05/11 05:17:35;;;;;;;19.20;2.60;;;;;;;10.82;41.09;99475.52;107858;1308;23265;-43
2023/05/11 05:20:01;;;;;;;7.40;2.50;;;;;;;10.89;41.25;99478.64;107854;1308;23142;-47
2023/05/11 05:22:27;;;;;;;3.80;2.20;;;;;;;10.92;41.48;99479.85;107849;1308;22306;-48
2023/05/11 05:24:52;;;;;;;10.50;2.50;;;;;;;10.98;41.24;99482.02;107854;1308;22495;-51
2023/05/11 05:27:17;;;;;;;16.40;2.90;;;;;;;11.03;41.02;99482.27;107837;1308;22453;-44
2023/05/11 05:29:43;;;;;;;4.60;2.40;;;;;;;11.05;40.82;99483.90;107850;1308;22440;-49
2023/05/11 05:32:08;;;;;;;11.90;2.90;;;;;;;11.10;40.81;99481.88;107875;1308;22192;-45
2023/05/11 05:34:33;;;;;;;12.40;2.30;;;;;;;11.14;40.98;99486.59;107852;1308;22414;-43
2023/05/11 05:36:59;;;;;;;8.20;2.70;;;;;;;11.19;41.32;99479.83;107877;1308;22327;-47
2023/05/11 05:39:24;;;;;;;12.40;3.00;;;;;;;11.23;41.25;99478.52;107870;1307;23127;-46
2023/05/11 05:41:50;;;;;;;7.40;3.10;;;;;;;11.29;41.35;99485.20;107672;1308;22252;-47
2023/05/11 05:44:15;;;;;;;8.60;2.60;;;;;;;11.34;41.42;99487.40;107893;1307;22889;-49
2023/05/11 05:46:40;;;;;;;8.60;2.70;;;;;;;11.40;41.20;99487.98;107906;1307;22247;-49
2023/05/11 05:49:06;;;;;;;12.30;2.70;;;;;;;11.46;41.24;99486.57;107877;1307;22230;-47
2023/05/11 05:51:31;;;;;;;8.50;2.60;;;;;;;11.51;41.61;99485.06;107890;1307;22584;-50
2023/05/11 05:53:57;;;;;;;5.40;2.90;;;;;;;11.57;41.62;99487.89;107878;1307;22305;-47
2023/05/11 05:56:22;;;;;;;9.90;2.70;;;;;;;11.64;41.66;99489.58;107913;1308;22485;-43
2023/05/11 05:58:47;;;;;;;14.60;3.10;;;;;;;11.70;41.40;99489.42;107873;1307;22451;-47
2023/05/11 06:01:13;;;;;;;8.00;3.00;;;;;;;11.76;41.15;99489.99;107728;1301;23155;-45
2023/05/11 06:03:38;;;;;;;13.10;3.30;;;;;;;11.81;41.29;99486.86;107711;1304;23135;-50
2023/05/11 06:06:05;;;;;;;9.40;3.20;;;;;;;11.86;41.37;99488.50;107709;1301;22921;-54
2023/05/11 06:08:31;;;;;;;12.90;3.10;;;;;;;11.93;41.30;99488.31;107744;1307;22252;-47
2023/05/11 06:10:56;;;;;;;13.20;2.80;;;;;;;11.98;41.14;99490.15;107727;1306;22241;-47
2023/05/11 06:13:21;;;;;;;8.20;2.70;;;;;;;12.05;40.98;99487.10;107742;1304;22514;-43
2023/05/11 06:15:47;;;;;;;8.50;2.60;;;;;;;12.12;41.07;99484.98;107740;1294;22453;-46
2023/05/11 06:18:12;;;;;;;8.40;2.70;;;;;;;12.19;40.95;99490.88;107703;1295;22463;-46
2023/05/11 06:20:37;;;;;;;8.40;2.80;;;;;;;12.26;40.69;99490.13;107715;1307;23404;-48
2023/05/11 06:23:03;;;;;;;8.20;2.50;;;;;;;12.32;40.69;99489.73;107726;1294;22282;-50
2023/05/11 06:25:28;;;;;;;8.50;2.50;;;;;;;12.40;40.71;99490.53;107727;1297;22472;-46
2023/05/11 06:27:53;;;;;;;9.50;2.90;;;;;;;12.48;40.57;99487.20;107717;1291;22931;-46
2023/05/11 06:30:18;;;;;;;10.50;2.70;;;;;;;12.56;40.72;99493.61;107710;1304;22239;-47
2023/05/11 06:32:44;;;;;;;6.70;2.70;;;;;;;12.63;40.53;99493.17;107733;1301;22434;-47
2023/05/11 06:35:09;;;;;;;5.80;2.50;;;;;;;12.70;40.62;99492.42;107727;1294;23040;-44
2023/05/11 06:37:34;;;;;;;7.60;2.50;;;;;;;12.78;40.50;99491.05;107706;1308;22908;-49
2023/05/11 06:40:00;;;;;;;14.00;2.50;;;;;;;12.85;40.53;99489.19;107729;1297;22588;-46
2023/05/11 06:42:26;;;;;;;11.50;2.70;;;;;;;12.91;39.99;99488.65;107724;1308;22238;-48
2023/05/11 06:44:51;;;;;;;14.10;4.00;;;;;;;12.96;39.85;99488.30;107731;1295;22493;-46
2023/05/11 06:47:17;;;;;;;5.20;2.30;;;;;;;13.03;39.82;99492.85;107731;1295;22512;-44
2023/05/11 06:49:43;;;;;;;11.70;2.40;;;;;;;13.09;39.93;99492.65;107483;1308;22268;-46
2023/05/11 06:52:08;;;;;;;15.80;3.20;;;;;;;13.16;39.75;99493.30;107705;1297;22424;-48
2023/05/11 06:54:34;;;;;;;7.90;2.60;;;;;;;13.21;39.62;99495.08;107707;1293;23069;-48
2023/05/11 06:57:00;;;;;;;9.60;2.70;;;;;;;13.29;39.49;99490.01;107739;1306;22327;-45
2023/05/11 06:59:26;;;;;;;8.30;2.50;;;;;;;13.35;39.58;99486.31;107707;1308;22544;-49
2023/05/11 07:01:51;;;;;;;7.70;2.60;;;;;;;13.42;39.81;99485.34;107727;1307;22259;-49
2023/05/11 07:04:17;;;;;;;11.30;2.40;;;;;;;13.51;39.73;99486.18;107718;1301;22307;-45
2023/05/11 07:06:42;;;;;;;7.70;2.20;;;;;;;13.59;39.27;99489.67;107684;1297;22522;-49
2023/05/11 07:09:07;;;;;;;7.00;2.50;;;;;;;13.66;39.20;99486.77;107707;1308;22434;-45
2023/05/11 07:11:33;;;;;;;8.70;2.20;;;;;;;13.73;39.15;99486.11;107693;1308;23049;-47
2023/05/11 07:13:58;;;;;;;5.30;2.20;;;;;;;13.81;38.80;99483.13;107685;1302;22518;-48
2023/05/11 07:16:23;;;;;;;16.10;2.40;;;;;;;13.88;38.97;99482.71;107704;1297;24358;-47
2023/05/11 07:18:49;;;;;;;13.10;3.30;;;;;;;13.93;38.56;99481.45;107704;1308;23888;-48
2023/05/11 07:21:14;;;;;;;10.20;2.50;;;;;;;13.99;38.68;99485.71;107703;1308;23037;-49
2023/05/11 07:23:40;;;;;;;9.80;2.60;;;;;;;14.04;38.69;99485.33;107716;1304;23153;-45
2023/05/11 07:26:08;;;;;;;2.80;2.20;;;;;;;14.09;38.56;99485.70;107696;1304;23353;-45
2023/05/11 07:28:34;;;;;;;9.10;2.30;;;;;;;14.15;38.33;99486.02;107754;1301;23106;-50
2023/05/11 07:31:00;;;;;;;9.30;2.50;;;;;;;14.23;38.50;99487.98;107749;1289;22268;-45
2023/05/11 07:33:25;;;;;;;16.20;2.60;;;;;;;14.30;38.13;99487.52;107699;1301;23304;-49
2023/05/11 07:35:51;;;;;;;14.60;2.90;;;;;;;14.36;38.25;99485.14;107703;1294;22466;-49
2023/05/11 07:38:17;;;;;;;9.60;2.20;;;;;;;14.43;38.46;99484.00;107701;1285;22264;-50
2023/05/11 07:40:42;;;;;;;4.50;2.40;;;;;;;14.49;38.10;99486.42;107690;1301;22441;-50
2023/05/11 07:43:08;;;;;;;10.20;2.70;;;;;;;14.55;37.89;99487.02;107734;1308;22243;-44
2023/05/11 07:45:33;;;;;;;8.30;2.10;;;;;;;14.63;37.66;99489.02;107730;1305;22541;-43
2023/05/11 07:47:58;;;;;;;9.00;2.60;;;;;;;14.69;37.65;99487.55;107719;1301;22416;-46
2023/05/11 07:50:24;;;;;;;9.80;2.40;;;;;;;14.75;37.82;99486.02;107720;1308;22709;-49
2023/05/11 07:52:49;;;;;;;9.80;2.50;;;;;;;14.83;37.40;99486.17;107714;1308;22495;-49
2023/05/11 07:55:14;;;;;;;9.60;2.10;;;;;;;14.90;37.46;99490.61;107716;1308;22384;-44
2023/05/11 07:57:40;;;;;;;4.10;2.20;;;;;;;14.98;37.03;99488.63;107707;1307;22977;-50
2023/05/11 08:00:06;;;;;;;5.00;2.10;;;;;;;15.05;37.13;99485.67;107739;1294;22694;-47
2023/05/11 08:02:32;;;;;;;9.90;2.50;;;;;;;15.13;36.91;99484.23;107724;1308;22320;-45
2023/05/11 08:04:57;;;;;;;9.20;2.10;;;;;;;15.21;36.52;99486.49;107694;1305;22365;-49
2023/05/11 08:07:23;;;;;;;7.90;2.50;;;;;;;15.30;36.64;99479.35;107671;1301;22493;-51
2023/05/11 08:09:48;;;;;;;5.10;2.60;;;;;;;15.37;36.42;99475.33;107713;1308;22536;-47
2023/05/11 08:12:13;;;;;;;6.40;2.40;;;;;;;15.43;36.16;99475.75;107702;1308;23432;-46
2023/05/11 08:14:39;;;;;;;6.00;2.30;;;;;;;15.51;35.80;99478.20;107702;1301;22450;-50
2023/05/11 08:17:04;;;;;;;14.10;2.40;;;;;;;15.60;36.07;99479.83;107670;1308;22479;-50
2023/05/11 08:19:30;;;;;;;16.60;2.60;;;;;;;15.69;35.75;99475.77;107695;1304;22477;-46
2023/05/11 08:21:55;;;;;;;6.90;2.20;;;;;;;15.82;35.56;99477.51;107682;1301;22522;-44
2023/05/11 08:24:20;;;;;;;3.40;2.20;;;;;;;15.95;35.53;99472.33;107687;1308;23251;-47
2023/05/11 08:26:46;;;;;;;6.60;2.40;;;;;;;16.02;35.10;99471.27;107727;1308;22269;-47
2023/05/11 08:29:11;;;;;;;7.20;2.40;;;;;;;16.16;34.90;99472.91;107702;1307;22317;-47
2023/05/11 08:31:37;;;;;;;6.30;2.20;;;;;;;16.25;35.26;99476.77;107707;1304;23566;-44
2023/05/11 08:34:03;;;;;;;5.50;2.40;;;;;;;16.38;35.21;99475.28;107680;1294;22398;-50
2023/05/11 08:36:28;;;;;;;7.20;2.40;;;;;;;16.53;34.81;99476.78;107677;1308;22477;-46
2023/05/11 08:38:53;;;;;;;6.30;2.20;;;;;;;16.66;33.97;99477.04;107703;1308;22266;-46
2023/05/11 08:41:20;;;;;;;6.10;2.30;;;;;;;16.79;33.79;99476.04;107691;1297;22510;-51
2023/05/11 08:43:46;;;;;;;3.70;2.10;;;;;;;16.94;33.21;99475.98;107703;1308;22523;-46
2023/05/11 08:46:16;;;;;;;17.80;3.30;;;;;;;17.10;32.68;99480.37;107684;1301;22473;-43
2023/05/11 08:48:43;;;;;;;9.50;2.00;;;;;;;17.21;31.82;99476.05;107695;1297;23235;-46
2023/05/11 08:51:08;;;;;;;6.60;2.00;;;;;;;17.36;32.11;99473.33;107682;1308;22463;-45
2023/05/11 08:53:34;;;;;;;7.10;2.30;;;;;;;17.57;32.23;99473.38;107760;1308;22254;-46
2023/05/11 08:56:00;;;;;;;11.40;2.40;;;;;;;17.81;31.89;99469.15;107673;1308;22456;-50
2023/05/11 08:58:26;;;;;;;9.40;2.30;;;;;;;17.99;31.40;99465.67;107724;1308;22324;-45
2023/05/11 09:00:53;;;;;;;8.50;2.30;;;;;;;18.21;31.14;99467.39;107690;1301;22853;-48
2023/05/11 09:03:18;;;;;;;5.00;2.00;;;;;;;18.42;30.68;99466.35;107715;1294;23263;-49
2023/05/11 09:05:46;;;;;;;8.10;2.10;;;;;;;18.66;30.56;99466.42;107702;1305;22271;-51
2023/05/11 09:08:13;;;;;;;5.40;2.10;;;;;;;18.90;30.70;99472.20;107729;1307;22249;-45
2023/05/11 09:10:38;;;;;;;6.40;2.20;;;;;;;19.18;30.29;99476.38;107728;1308;23221;-51
2023/05/11 09:13:04;;;;;;;5.60;1.90;;;;;;;19.45;30.05;99470.11;107727;1294;22495;-48
2023/05/11 09:15:30;;;;;;;11.30;2.50;;;;;;;19.77;29.74;99466.09;107725;1308;22471;-48
2023/05/11 09:17:55;;;;;;;6.20;2.10;;;;;;;20.08;29.63;99470.29;107719;1301;22359;-47
2023/05/11 09:20:31;;;;;;;3.10;2.30;;;;;;;20.49;29.20;99469.70;107723;1307;22273;-50
2023/05/11 09:22:57;;;;;;;3.50;1.90;;;;;;;20.99;28.89;99468.16;107722;1307;22244;-50
2023/05/11 09:25:24;;;;;;;6.70;2.50;;;;;;;21.53;28.18;99474.89;107698;1305;22644;-46
2023/05/11 09:27:49;;;;;;;6.30;2.20;;;;;;;22.11;27.26;99470.81;107725;1305;22695;-50
2023/05/11 09:30:22;;;;;;;6.00;2.00;;;;;;;22.77;26.55;99475.36;107711;1308;22260;-46
2023/05/11 09:32:49;;;;;;;8.30;2.20;;;;;;;23.38;25.80;99466.48;107702;1305;22525;-48
2023/05/11 09:35:33;;;;;;;;;;;;;;;23.89;24.61;99467.33;107670;1297;22474;-52
2023/05/11 09:38:10;;;;;;;8.80;2.40;;;;;;;24.52;24.86;99474.59;107722;1297;22471;-43
2023/05/11 09:40:48;;;;;;;;;;;;;;;25.08;24.21;99470.31;107742;1294;23333;-46
2023/05/11 09:43:15;;;;;;;6.60;2.00;;;;;;;25.56;23.49;99466.34;107709;1301;23199;-47
2023/05/11 09:45:43;;;;;;;3.00;1.90;;;;;;;26.02;22.63;99464.63;107563;1295;22441;-50
2023/05/11 09:48:29;;;;;;;4.90;2.30;;;;;;;26.58;22.34;99465.68;107530;1310;22177;-47
2023/05/11 09:51:07;;;;;;;2.70;2.10;;;;;;;26.89;20.75;99466.18;107668;1307;22261;-49
2023/05/11 09:53:42;;;;;;;6.00;2.20;;;;;;;27.26;20.59;99468.27;107721;1295;22574;-47
2023/05/11 09:56:08;;;;;;;3.10;1.80;;;;;;;27.63;20.96;99464.89;107705;1308;22218;-48
2023/05/11 09:58:56;;;;;;;2.40;1.90;;;;;;;27.80;20.16;99463.09;107756;1302;22381;-50
2023/05/11 10:01:31;;;;;;;5.10;2.50;;;;;;;28.21;19.84;99466.14;107708;1308;22424;-49
2023/05/11 10:03:58;;;;;;;4.60;2.20;;;;;;;28.47;19.23;99461.73;107705;1302;22398;-48
2023/05/11 10:06:24;;;;;;;2.90;1.70;;;;;;;28.69;18.43;99460.35;107732;1301;22396;-44
2023/05/11 10:08:50;;;;;;;7.20;2.40;;;;;;;29.03;19.40;99462.73;107720;1308;22088;-49
2023/05/11 10:11:16;;;;;;;5.70;2.10;;;;;;;29.23;18.60;99458.79;107722;1295;23283;-51
2023/05/11 10:13:43;;;;;;;12.60;2.20;;;;;;;29.57;18.28;99453.70;107779;1307;22276;-45
2023/05/11 10:16:10;;;;;;;2.70;1.90;;;;;;;29.83;17.84;99454.45;107706;1305;22281;-50
2023/05/11 10:18:36;;;;;;;8.90;2.40;;;;;;;30.00;17.66;99451.02;107733;1297;22205;-48
2023/05/11 10:21:02;;;;;;;6.10;2.00;;;;;;;30.07;17.55;99455.60;107719;1305;22264;-51
2023/05/11 10:23:29;;;;;;;;;;;;;;;30.12;16.96;99455.05;107726;1308;22467;-47
2023/05/11 10:25:56;;;;;;;4.80;1.90;;;;;;;30.29;17.12;99455.46;107717;1308;22399;-49
2023/05/11 10:28:21;;;;;;;;;;;;;;;30.40;17.05;99448.95;107738;1308;22481;-47
2023/05/11 10:30:47;;;;;;;7.40;2.00;;;;;;;29.97;16.81;99452.33;107729;1305;22852;-52
2023/05/11 10:33:12;;;;;;;6.60;1.90;;;;;;;29.98;17.15;99448.98;107834;1301;22459;-47
2023/05/11 10:35:38;;;;;;;8.10;2.20;;;;;;;30.18;17.35;99449.31;107720;1297;22477;-49
2023/05/11 10:38:05;;;;;;;8.40;2.50;;;;;;;30.39;17.44;99449.45;107718;1308;22281;-47
2023/05/11 10:40:36;;;;;;;5.10;1.90;;;;;;;30.37;16.52;99448.23;107720;1301;23631;-49
2023/05/11 10:43:05;;;;;;;1.60;1.50;;;;;;;31.06;16.84;99451.20;107702;1307;22227;-49
2023/05/11 10:45:39;;;;;;;6.50;2.00;;;;;;;31.31;16.54;99438.41;107708;1301;23056;-48
2023/05/11 10:48:07;;;;;;;8.40;1.60;;;;;;;31.27;16.36;99442.60;107805;1299;22217;-45
2023/05/11 10:51:25;;;;;;;4.60;2.20;;;;;;;31.59;16.34;99446.44;107697;1308;22368;-48
2023/05/11 10:54:11;;;;;;;10.20;2.40;;;;;;;31.91;15.34;99443.27;107037;1306;22976;-46
2023/05/11 10:56:55;;;;;;;5.60;2.40;;;;;;;32.32;15.31;99440.14;107043;1300;22415;-42
2023/05/11 10:59:42;;;;;;;9.10;1.90;;;;;;;32.30;15.51;99438.98;107048;1308;23072;-45
2023/05/11 11:02:08;;;;;;;6.00;1.90;;;;;;;32.64;15.25;99435.25;107030;1304;22292;-51
2023/05/11 11:04:47;;;;;;;6.30;1.90;;;;;;;33.02;15.07;99437.77;107015;1316;22405;-45
2023/05/11 11:07:16;;;;;;;3.70;2.70;;;;;;;32.82;14.83;99436.85;107035;1306;22409;-44
2023/05/11 11:09:58;;;;;;;5.50;2.00;;;;;;;33.04;15.15;99434.39;107110;1309;22328;-47
2023/05/11 11:12:28;;;;;;;4.20;2.10;;;;;;;33.03;14.77;99436.98;106984;1314;22514;-45
2023/05/11 11:15:03;;;;;;;2.60;1.50;;;;;;;32.73;14.32;99435.33;106907;1316;22339;-47
2023/05/11 11:17:31;;;;;;;3.00;1.90;;;;;;;32.68;14.48;99432.20;107029;1308;23313;-42
2023/05/11 11:20:00;;;;;;;3.60;1.60;;;;;;;32.80;14.81;99432.34;107011;1315;23031;-47
2023/05/11 11:22:34;;;;;;;3.10;1.70;;;;;;;33.06;14.58;99434.91;106992;1314;23238;-43
2023/05/11 11:25:05;;;;;;;8.20;1.80;;;;;;;33.08;14.15;99429.11;106992;1309;22391;-46
2023/05/11 11:27:39;;;;;;;6.70;2.20;;;;;;;33.39;14.55;99432.13;106980;1313;23893;-44
2023/05/11 11:30:19;;;;;;;3.70;2.10;;;;;;;33.25;13.95;99435.23;107460;1299;22292;-45
2023/05/11 11:32:46;;;;;;;3.10;2.00;;;;;;;33.22;14.12;99435.60;107695;1305;22341;-42
2023/05/11 11:35:40;;;;;;;5.30;2.20;;;;;;;33.70;14.10;99434.36;107754;1308;24054;-46
2023/05/11 11:38:11;;;;;;;4.80;2.10;;;;;;;33.97;14.09;99435.56;107721;1305;22727;-46
2023/05/11 11:40:44;;;;;;;4.90;2.20;;;;;;;34.11;14.14;99435.70;107705;1299;22397;-42
2023/05/11 11:43:21;;;;;;;16.50;2.70;;;;;;;33.75;13.30;99441.51;107702;1308;22388;-46
2023/05/11 11:45:59;;;;;;;6.20;1.80;;;;;;;33.71;14.26;99439.77;107630;1302;22269;-46
2023/05/11 11:48:39;;;;;;;6.20;2.10;;;;;;;33.82;14.28;99436.73;107744;1308;22305;-49
2023/05/11 11:51:06;;;;;;;6.30;1.70;;;;;;;33.98;14.68;99431.81;107682;1304;22661;-46
2023/05/11 11:53:37;;;;;;;6.40;2.20;;;;;;;34.06;13.96;99431.32;107713;1301;22403;-44
2023/05/11 11:56:06;;;;;;;3.30;1.60;;;;;;;34.04;13.82;99432.46;107731;1298;22249;-47
2023/05/11 11:58:41;;;;;;;4.10;1.80;;;;;;;34.01;13.44;99434.70;107724;1295;22378;-48
2023/05/11 12:01:19;;;;;;;4.60;1.90;;;;;;;33.92;13.71;99421.38;107702;1302;23187;-48
2023/05/11 12:03:52;;;;;;;5.80;2.00;;;;;;;33.90;13.58;99426.81;107701;1298;23071;-43
2023/05/11 12:06:21;;;;;;;29.40;4.30;;;;;;;34.30;13.47;99425.64;107729;1304;22949;-49
2023/05/11 12:08:47;;;;;;;5.10;2.20;;;;;;;34.25;13.37;99426.02;107550;1307;23036;-44
2023/05/11 12:11:16;;;;;;;4.00;1.90;;;;;;;34.56;13.62;99423.93;107699;1305;22377;-50
2023/05/11 12:13:42;;;;;;;3.70;2.50;;;;;;;34.58;13.28;99425.20;107517;1301;22523;-44
2023/05/11 12:16:08;;;;;;;3.40;1.80;;;;;;;34.61;13.11;99429.90;107710;1308;23039;-46
2023/05/11 12:18:34;;;;;;;7.30;2.50;;;;;;;34.50;12.63;99428.63;107708;1308;22345;-45
2023/05/11 12:20:59;;;;;;;;;;;;;;;34.53;12.93;99424.81;107806;1308;22425;-51
2023/05/11 12:23:26;;;;;;;4.90;1.60;;;;;;;34.43;12.53;99420.49;107688;1304;23282;-45
2023/05/11 12:26:05;;;;;;;3.60;2.00;;;;;;;34.17;13.18;99423.32;107714;1301;23152;-47
2023/05/11 12:28:34;;;;;;;4.10;2.20;;;;;;;34.06;13.46;99422.27;107694;1308;23188;-44
2023/05/11 12:31:00;;;;;;;6.10;1.80;;;;;;;33.72;13.25;99421.45;107678;1303;22249;-48
2023/05/11 12:33:25;;;;;;;2.20;1.60;;;;;;;33.44;13.94;99415.10;107706;1301;22409;-50
2023/05/11 12:35:55;;;;;;;3.80;1.80;;;;;;;32.95;14.43;99411.70;107701;1301;22256;-51
2023/05/11 12:38:21;;;;;;;4.40;2.00;;;;;;;32.35;14.82;99408.83;107712;1308;22278;-49
2023/05/11 12:40:48;;;;;;;13.30;2.30;;;;;;;31.40;15.40;99416.06;107751;1302;22263;-51
2023/05/11 12:43:16;;;;;;;9.10;2.20;;;;;;;30.93;15.87;99413.58;107688;1295;22446;-47
2023/05/11 12:45:42;;;;;;;5.40;2.10;;;;;;;30.72;16.16;99415.90;107704;1295;22619;-44
2023/05/11 12:48:09;;;;;;;8.90;1.90;;;;;;;30.12;16.60;99406.92;107695;1301;22957;-49
2023/05/11 12:50:42;;;;;;;4.60;2.00;;;;;;;29.78;17.37;99401.10;107690;1301;22488;-49
2023/05/11 12:53:21;;;;;;;2.20;2.00;;;;;;;29.59;17.22;99397.40;107695;1302;22978;-49
2023/05/11 12:55:59;;;;;;;5.30;2.10;;;;;;;29.30;17.51;99394.15;107659;1301;22388;-46
2023/05/11 12:58:24;;;;;;;6.00;2.20;;;;;;;28.90;18.17;99396.23;107675;1304;22411;-49
2023/05/11 13:00:51;;;;;;;6.90;2.10;;;;;;;28.77;18.36;99393.97;107717;1305;23248;-47
2023/05/11 13:03:29;;;;;;;6.30;2.10;;;;;;;28.43;18.02;99393.89;107652;1302;22190;-45
2023/05/11 13:06:09;;;;;;;6.40;2.40;;;;;;;27.86;18.66;99398.23;107671;1303;22363;-49
2023/05/11 13:08:39;;;;;;;8.40;1.80;;;;;;;27.41;19.13;99389.23;107725;1295;23181;-47
2023/05/11 13:11:17;;;;;;;6.90;2.20;;;;;;;27.06;19.87;99392.27;107696;1305;22445;-42
2023/05/11 13:13:43;;;;;;;7.00;2.20;;;;;;;26.87;19.92;99387.30;107665;1308;22851;-46
2023/05/11 13:16:09;;;;;;;8.40;1.80;;;;;;;26.87;20.21;99385.84;107658;1302;22248;-46
2023/05/11 13:18:34;;;;;;;7.30;2.20;;;;;;;26.84;20.08;99381.70;107699;1294;23126;-44
2023/05/11 13:21:05;;;;;;;9.10;2.60;;;;;;;26.62;20.68;99378.94;107650;1297;22360;-46
2023/05/11 13:23:30;;;;;;;9.90;3.00;;;;;;;26.44;20.52;99377.84;107683;1301;23233;-47
2023/05/11 13:25:55;;;;;;;4.70;2.10;;;;;;;26.21;20.29;99373.98;107658;1308;23228;-45
2023/05/11 13:28:23;;;;;;;5.40;1.80;;;;;;;26.17;20.20;99364.89;107648;1294;23080;-48
2023/05/11 13:30:50;;;;;;;5.10;1.80;;;;;;;26.11;20.21;99366.91;107667;1297;22362;-49
2023/05/11 13:33:15;;;;;;;2.40;1.80;;;;;;;25.89;20.58;99363.92;107683;1304;22244;-43
2023/05/11 13:35:42;;;;;;;3.30;2.00;;;;;;;25.85;20.71;99360.41;107708;1301;22504;-47
2023/05/11 13:38:10;;;;;;;6.80;2.20;;;;;;;25.76;21.34;99361.67;107660;1304;22490;-44
2023/05/11 13:40:36;;;;;;;5.30;2.10;;;;;;;25.44;20.61;99356.97;107719;1308;22412;-46
2023/05/11 13:43:02;;;;;;;4.00;1.90;;;;;;;25.68;21.02;99355.58;107701;1304;22298;-49
2023/05/11 13:45:27;;;;;;;7.90;2.10;;;;;;;25.85;21.26;99356.30;107642;1304;23307;-47
2023/05/11 13:47:54;;;;;;;4.90;2.00;;;;;;;26.03;21.24;99355.13;107635;1294;22268;-43
2023/05/11 13:50:20;;;;;;;3.10;2.40;;;;;;;26.05;21.01;99350.55;107625;1308;22420;-43
2023/05/11 13:52:46;;;;;;;9.00;3.10;;;;;;;26.12;21.01;99353.66;107655;1307;22384;-48
2023/05/11 13:55:11;;;;;;;11.60;4.30;;;;;;;26.03;20.38;99357.98;107640;1302;22917;-51
2023/05/11 13:57:36;;;;;;;6.20;2.10;;;;;;;25.72;21.40;99351.61;107680;1308;22416;-44
2023/05/11 14:00:02;;;;;;;13.00;2.40;;;;;;;25.58;21.92;99353.16;107669;1308;22568;-48
2023/05/11 14:02:27;;;;;;;7.50;2.90;;;;;;;25.53;21.89;99352.90;107703;1303;23289;-50
2023/05/11 14:04:53;;;;;;;7.20;2.20;;;;;;;25.49;22.33;99345.66;107692;1308;22267;-45
2023/05/11 14:07:18;;;;;;;7.40;2.90;;;;;;;25.56;21.73;99344.56;107712;1308;22726;-44
2023/05/11 14:09:44;;;;;;;6.70;2.10;;;;;;;25.48;21.51;99346.31;107679;1308;24427;-50
2023/05/11 14:12:09;;;;;;;4.30;1.90;;;;;;;25.38;21.55;99346.18;107683;1302;23419;-49